Arnoldsville, GA

12:20 AM EDT on September 02, 2014 (GMT -0400)
Athens / Epps | Change Station
CLOSE
Current Station
Airport
Location: Athens,
Elevation: 810 ft
Nearby Weather Stations

Elev 810 ft 33.95 °N, 83.33 °W | Updated 29 minutes ago

Clear
Clear
75 °F
Feels Like 75 °F
N
4
Wind Variable Wind from SW

Today
High -- | Low -- °F
--% Chance of Precip.
Yesterday
High -- | Low -- °F
Precip. -- in
7:07 AM 7:57 PM
Waxing Crescent, 47% visible
Pressure 30.10 in
Visibility 10.0 miles
Clouds Clear
Dew Point 70 °F
Humidity 84%
Rainfall 0.00 in
Snow Depth Not available.
UV 0 out of 12
Pollen 8.90 out of 12
Air Quality Not available.
Flu Activity Not available.
METAR KAHN 020351Z AUTO 22003KT 10SM CLR 24/21 A3013 RMK AO2 SLP193 T02390211

More Conditions Fewer Conditions

Pressure 30.10 in
Visibility 10.0 miles
Clouds Clear
Dew Point 70 °F
Humidity 84%
Rainfall 0.00 in
Snow Depth Not available.
UV 0 out of 12
Pollen 8.90 out of 12
Air Quality Not available.
Flu Activity Not available.
METAR KAHN 020351Z AUTO 22003KT 10SM CLR 24/21 A3013 RMK AO2 SLP193 T02390211

More Conditions Fewer Conditions

10-Day Weather Forecast

Almanac

Astronomy

Sep. 02, 2014 Rise Set
Actual Time 7:07 AM EDT 7:57 PM EDT
Civil Twilight 6:42 AM EDT 8:22 PM EDT
Nautical Twilight 6:12 AM EDT 8:52 PM EDT
Astronomical Twilight 5:41 AM EDT 9:23 PM EDT
Moon 2:31 PM EDT 12:18 AM EDT
Length of Visible Light 13h 40m
Length of Day
12h 49m
Tomorrow will be 2m 1s shorter.
Waxing Crescent, 47% of the Moon is Illuminated
Today
Waxing Crescent
Sep 2
First Quarter
Sep 8
Full
Sep 15
Last Quarter
Sep 24
New

Yesterday's Extremes

State Highs State Lows

Community

WunderPhotos

Upload Photos

1,749,560 photos uploaded!

WunderBlogs® & News

Nearby

Snow Depth

Station Depth Elevation
No new snow has been reported.

Earthquake Activity

City Distance Mag. Time & Date
No recent earthquake activity has been reported nearby.
Minimum magnitude displayed is 2.5.

Coastal Water Temperatures

Place Temperature
No Stations Reporting

Nearby Weather Stations